createdAt,value
2018-03-08T00:00:40.852Z,4.9
2018-03-08T00:01:48.051Z,4.9
2018-03-08T00:02:55.252Z,4.8
2018-03-08T00:04:02.454Z,4.9
2018-03-08T00:05:09.655Z,4.8
2018-03-08T00:06:16.855Z,4.9
2018-03-08T00:07:24.072Z,4.8
2018-03-08T00:08:31.268Z,4.9
2018-03-08T00:09:38.466Z,4.8
2018-03-08T00:10:45.664Z,4.8
2018-03-08T00:11:52.600Z,4.8
2018-03-08T00:12:59.803Z,4.8
2018-03-08T00:14:07.006Z,4.8
2018-03-08T00:15:13.928Z,4.8
2018-03-08T00:16:20.853Z,4.8
2018-03-08T00:17:28.049Z,4.8
2018-03-08T00:18:35.281Z,4.7
2018-03-08T00:19:42.481Z,4.7
2018-03-08T00:20:49.408Z,4.8
2018-03-08T00:21:56.333Z,4.7
2018-03-08T00:23:03.262Z,4.7
2018-03-08T00:24:10.183Z,4.7
2018-03-08T00:25:17.103Z,4.8
2018-03-08T00:26:24.047Z,4.7
2018-03-08T00:27:31.247Z,4.8
2018-03-08T00:28:38.167Z,4.8
2018-03-08T00:29:45.090Z,4.9
2018-03-08T00:30:52.288Z,4.9
2018-03-08T00:31:59.485Z,4.9
2018-03-08T00:33:06.429Z,4.9
2018-03-08T00:34:12.524Z,4.9
2018-03-08T00:35:19.738Z,4.9
2018-03-08T00:36:26.667Z,4.9
2018-03-08T00:37:33.589Z,4.9
2018-03-08T00:38:40.510Z,4.9
2018-03-08T00:39:47.711Z,4.9
2018-03-08T00:40:54.949Z,4.8
2018-03-08T00:42:02.157Z,4.8
2018-03-08T00:43:09.357Z,4.8
2018-03-08T00:44:16.553Z,4.8
2018-03-08T00:45:23.780Z,4.7
2018-03-08T00:46:30.984Z,4.7
2018-03-08T00:47:37.631Z,4.7
2018-03-08T00:48:44.829Z,4.7
2018-03-08T00:49:52.030Z,4.6
2018-03-08T00:50:58.677Z,4.6
2018-03-08T00:52:05.875Z,4.6
2018-03-08T00:53:13.080Z,4.6
2018-03-08T00:54:19.726Z,4.6
2018-03-08T00:55:26.644Z,4.6
2018-03-08T00:56:33.571Z,4.6
2018-03-08T00:57:40.772Z,4.6
2018-03-08T00:58:47.972Z,4.6
2018-03-08T00:59:55.173Z,4.6
2018-03-08T01:01:01.825Z,4.6
2018-03-08T01:02:09.022Z,4.5
2018-03-08T01:03:16.226Z,4.5
2018-03-08T01:04:23.419Z,4.5
2018-03-08T01:05:30.624Z,4.5
2018-03-08T01:06:37.829Z,4.5
2018-03-08T01:07:45.029Z,4.5
2018-03-08T01:08:51.951Z,4.4
2018-03-08T01:09:59.151Z,4.4
2018-03-08T01:11:06.349Z,4.4
2018-03-08T01:12:13.549Z,4.4
2018-03-08T01:13:20.485Z,4.5
2018-03-08T01:14:27.404Z,4.5
2018-03-08T01:15:34.058Z,4.5
2018-03-08T01:16:40.704Z,4.5
2018-03-08T01:17:47.401Z,4.5
2018-03-08T01:18:54.322Z,4.5
2018-03-08T01:20:01.525Z,4.5
2018-03-08T01:21:08.443Z,4.4
2018-03-08T01:22:15.640Z,4.5
2018-03-08T01:23:22.565Z,4.4
2018-03-08T01:24:29.228Z,4.4
2018-03-08T01:25:35.876Z,4.4
2018-03-08T01:26:42.800Z,4.4
2018-03-08T01:27:50.006Z,4.4
2018-03-08T01:28:56.932Z,4.4
2018-03-08T01:30:04.129Z,4.4
2018-03-08T01:31:10.778Z,4.4
2018-03-08T01:32:17.976Z,4.4
2018-03-08T01:33:24.351Z,4.4
2018-03-08T01:34:31.305Z,4.4
2018-03-08T01:35:38.224Z,4.4
2018-03-08T01:36:45.427Z,4.4
2018-03-08T01:37:52.621Z,4.4
2018-03-08T01:38:59.821Z,4.4
2018-03-08T01:40:07.025Z,4.4
2018-03-08T01:41:14.255Z,4.4
2018-03-08T01:42:21.453Z,4.4
2018-03-08T01:43:28.105Z,4.4
2018-03-08T01:44:35.300Z,4.4
2018-03-08T01:45:41.954Z,4.4
2018-03-08T01:46:49.159Z,4.4
2018-03-08T01:47:56.355Z,4.4
2018-03-08T01:49:03.556Z,4.4
2018-03-08T01:50:10.759Z,4.4
2018-03-08T01:51:17.967Z,4.4
2018-03-08T01:52:24.898Z,4.3
2018-03-08T01:53:32.097Z,4.4
2018-03-08T01:54:39.294Z,4.3
2018-03-08T01:55:46.224Z,4.3
2018-03-08T01:56:53.208Z,4.3
2018-03-08T01:58:00.432Z,4.3
2018-03-08T01:59:07.639Z,4.3
2018-03-08T02:00:14.556Z,4.3
2018-03-08T02:01:21.755Z,4.3
2018-03-08T02:02:28.407Z,4.2
2018-03-08T02:03:35.608Z,4.3
2018-03-08T02:04:42.536Z,4.2
2018-03-08T02:05:49.455Z,4.3
2018-03-08T02:06:56.659Z,4.2
2018-03-08T02:08:03.576Z,4.2
2018-03-08T02:09:10.226Z,4.2
2018-03-08T02:10:17.622Z,4.2
2018-03-08T02:11:24.553Z,4.1
2018-03-08T02:12:31.747Z,4.1
2018-03-08T02:13:38.666Z,4.1
2018-03-08T02:14:45.861Z,4.1
2018-03-08T02:15:53.054Z,4.1
2018-03-08T02:17:00.249Z,4.1
2018-03-08T02:18:07.170Z,4.1
2018-03-08T02:19:14.372Z,4.1
2018-03-08T02:20:21.572Z,4.1
2018-03-08T02:21:28.778Z,4.1
2018-03-08T02:22:35.704Z,4
2018-03-08T02:23:42.347Z,4
2018-03-08T02:24:49.268Z,4
2018-03-08T02:25:56.462Z,4
2018-03-08T02:27:03.665Z,4
2018-03-08T02:28:10.311Z,4
2018-03-08T02:29:17.238Z,4
2018-03-08T02:30:24.176Z,4
2018-03-08T02:31:31.096Z,4
2018-03-08T02:32:38.024Z,4
2018-03-08T02:33:45.219Z,4
2018-03-08T02:34:52.419Z,3.9
2018-03-08T02:35:59.339Z,3.9
2018-03-08T02:37:05.713Z,3.9
2018-03-08T02:38:12.640Z,3.9
2018-03-08T02:39:19.837Z,3.9
2018-03-08T02:40:27.041Z,3.9
2018-03-08T02:41:34.235Z,3.9
2018-03-08T02:42:40.877Z,3.8
2018-03-08T02:43:47.799Z,3.9
2018-03-08T02:44:54.722Z,3.9
2018-03-08T02:46:01.921Z,3.8
2018-03-08T02:47:08.564Z,3.9
2018-03-08T02:48:15.760Z,3.9
2018-03-08T02:49:22.961Z,3.8
2018-03-08T02:50:30.160Z,3.8
2018-03-08T02:51:36.816Z,3.8
2018-03-08T02:52:43.743Z,3.8
2018-03-08T02:53:50.676Z,3.8
2018-03-08T02:54:57.598Z,3.8
2018-03-08T02:56:04.798Z,3.8
2018-03-08T02:57:11.729Z,3.7
2018-03-08T02:58:18.658Z,3.7
2018-03-08T02:59:25.583Z,3.7
2018-03-08T03:00:32.781Z,3.7
2018-03-08T03:01:39.701Z,3.7
2018-03-08T03:02:46.931Z,3.7
2018-03-08T03:03:53.856Z,3.7
2018-03-08T03:05:00.787Z,3.7
2018-03-08T03:06:08.006Z,3.7
2018-03-08T03:07:15.202Z,3.7
2018-03-08T03:08:22.407Z,3.6
2018-03-08T03:09:29.610Z,3.6
2018-03-08T03:10:36.818Z,3.6
2018-03-08T03:11:44.013Z,3.6
2018-03-08T03:12:51.219Z,3.6
2018-03-08T03:13:58.414Z,3.6
2018-03-08T03:15:06.750Z,3.5
2018-03-08T03:16:13.945Z,3.6
2018-03-08T03:17:21.140Z,3.6
2018-03-08T03:18:28.335Z,3.6
2018-03-08T03:19:35.543Z,3.6
2018-03-08T03:20:42.732Z,3.6
2018-03-08T03:21:49.376Z,3.6
2018-03-08T03:22:56.572Z,3.6
2018-03-08T03:24:03.492Z,3.6
2018-03-08T03:25:10.690Z,3.6
2018-03-08T03:26:17.890Z,3.7
2018-03-08T03:27:24.813Z,3.7
2018-03-08T03:28:31.731Z,3.8
2018-03-08T03:29:38.658Z,3.7
2018-03-08T03:30:45.860Z,3.8
2018-03-08T03:31:52.234Z,3.7
2018-03-08T03:32:59.440Z,3.7
2018-03-08T03:34:06.637Z,3.7
2018-03-08T03:35:13.567Z,3.7
2018-03-08T03:36:20.793Z,3.7
2018-03-08T03:37:27.710Z,3.7
2018-03-08T03:38:34.361Z,3.7
2018-03-08T03:39:41.023Z,3.7
2018-03-08T03:40:48.228Z,3.7
2018-03-08T03:41:55.427Z,3.7
2018-03-08T03:43:02.628Z,3.7
2018-03-08T03:44:09.825Z,3.7
2018-03-08T03:45:17.028Z,3.7
2018-03-08T03:46:23.670Z,3.7
2018-03-08T03:47:30.043Z,3.7
2018-03-08T03:48:36.960Z,3.6
2018-03-08T03:49:43.892Z,3.6
2018-03-08T03:50:51.086Z,3.6
2018-03-08T03:51:58.289Z,3.6
2018-03-08T03:53:05.491Z,3.5
2018-03-08T03:54:12.412Z,3.5
2018-03-08T03:55:19.614Z,3.4
2018-03-08T03:56:26.821Z,3.4
2018-03-08T03:57:33.743Z,3.4
2018-03-08T03:58:40.938Z,3.4
2018-03-08T03:59:47.587Z,3.4
2018-03-08T04:00:54.236Z,3.4
2018-03-08T04:02:01.149Z,3.4
2018-03-08T04:03:08.077Z,3.4
2018-03-08T04:04:15.006Z,3.4
2018-03-08T04:05:21.654Z,3.4
2018-03-08T04:06:28.578Z,3.3
2018-03-08T04:07:35.786Z,3.3
2018-03-08T04:08:42.988Z,3.3
2018-03-08T04:09:50.187Z,3.2
2018-03-08T04:10:57.381Z,3.2
2018-03-08T04:12:04.029Z,3.2
2018-03-08T04:13:11.227Z,3.2
2018-03-08T04:14:18.149Z,3.1
2018-03-08T04:15:25.367Z,3.1
2018-03-08T04:16:32.290Z,3.1
2018-03-08T04:17:39.208Z,3.1
2018-03-08T04:18:46.411Z,3.1
2018-03-08T04:19:53.338Z,3
2018-03-08T04:21:00.279Z,3
2018-03-08T04:22:06.634Z,3
2018-03-08T04:23:13.560Z,3
2018-03-08T04:24:20.483Z,3
2018-03-08T04:25:27.686Z,3
2018-03-08T04:26:34.881Z,3
2018-03-08T04:27:42.077Z,2.9
2018-03-08T04:28:48.994Z,2.9
2018-03-08T04:29:55.925Z,2.9
2018-03-08T04:31:03.140Z,2.9
2018-03-08T04:32:10.331Z,2.9
2018-03-08T04:33:17.256Z,2.8
2018-03-08T04:34:24.460Z,2.8
2018-03-08T04:35:31.651Z,2.8
2018-03-08T04:36:38.573Z,2.8
2018-03-08T04:37:45.770Z,2.7
2018-03-08T04:38:52.968Z,2.7
2018-03-08T04:39:59.895Z,2.6
2018-03-08T04:41:06.815Z,2.6
2018-03-08T04:42:13.745Z,2.6
2018-03-08T04:43:20.662Z,2.6
2018-03-08T04:44:27.321Z,2.5
2018-03-08T04:45:33.976Z,2.5
2018-03-08T04:46:41.174Z,2.5
2018-03-08T04:47:48.369Z,2.4
2018-03-08T04:48:55.363Z,2.4
2018-03-08T04:50:02.598Z,2.4
2018-03-08T04:51:09.523Z,2.4
2018-03-08T04:52:16.722Z,2.3
2018-03-08T04:53:23.926Z,2.3
2018-03-08T04:54:31.133Z,2.2
2018-03-08T04:55:38.330Z,2.2
2018-03-08T04:56:45.255Z,2.2
2018-03-08T04:57:52.183Z,2.2
2018-03-08T04:58:59.376Z,2.1
2018-03-08T05:00:06.306Z,2.1
2018-03-08T05:01:13.505Z,2.1
2018-03-08T05:02:20.175Z,2.1
2018-03-08T05:03:27.377Z,2.1
2018-03-08T05:04:34.581Z,2.1
2018-03-08T05:05:41.507Z,2.1
2018-03-08T05:06:48.465Z,2.1
2018-03-08T05:07:55.392Z,2.1
2018-03-08T05:09:02.585Z,2
2018-03-08T05:10:09.576Z,2
2018-03-08T05:11:16.550Z,1.9
2018-03-08T05:12:23.748Z,1.9
2018-03-08T05:13:30.946Z,1.9
2018-03-08T05:14:38.148Z,1.9
2018-03-08T05:15:45.350Z,1.9
2018-03-08T05:16:52.547Z,1.8
2018-03-08T05:17:59.747Z,1.8
2018-03-08T05:19:06.944Z,1.8
2018-03-08T05:20:14.147Z,1.8
2018-03-08T05:21:21.075Z,1.8
2018-03-08T05:22:27.995Z,1.8
2018-03-08T05:23:35.194Z,1.7
2018-03-08T05:24:42.399Z,1.7
2018-03-08T05:25:49.607Z,1.6
2018-03-08T05:26:56.256Z,1.6
2018-03-08T05:28:03.458Z,1.6
2018-03-08T05:29:10.661Z,1.6
2018-03-08T05:30:17.869Z,1.6
2018-03-08T05:31:24.791Z,1.5
2018-03-08T05:32:31.430Z,1.5
2018-03-08T05:33:38.634Z,1.5
2018-03-08T05:34:45.826Z,1.5
2018-03-08T05:35:53.026Z,1.5
2018-03-08T05:36:59.949Z,1.5
2018-03-08T05:38:07.146Z,1.5
2018-03-08T05:39:14.346Z,1.5
2018-03-08T05:40:21.272Z,1.5
2018-03-08T05:41:28.470Z,1.5
2018-03-08T05:42:35.114Z,1.5
2018-03-08T05:43:41.752Z,1.4
2018-03-08T05:44:48.683Z,1.5
2018-03-08T05:45:55.876Z,1.4
2018-03-08T05:47:02.519Z,1.4
2018-03-08T05:48:09.436Z,1.5
2018-03-08T05:49:16.087Z,1.5
2018-03-08T05:50:23.282Z,1.5
2018-03-08T05:51:29.661Z,1.4
2018-03-08T05:52:36.858Z,1.5
2018-03-08T05:53:44.056Z,1.5
2018-03-08T05:54:51.252Z,1.4
2018-03-08T05:55:57.898Z,1.4
2018-03-08T05:57:05.096Z,1.4
2018-03-08T05:58:12.015Z,1.3
2018-03-08T05:59:18.948Z,1.3
2018-03-08T06:00:26.147Z,1.3
2018-03-08T06:01:33.341Z,1.3
2018-03-08T06:02:40.276Z,1.3
2018-03-08T06:03:47.476Z,1.3
2018-03-08T06:04:54.141Z,1.3
2018-03-08T06:06:01.067Z,1.3
2018-03-08T06:07:07.991Z,1.3
2018-03-08T06:08:15.187Z,1.3
2018-03-08T06:09:21.825Z,1.2
2018-03-08T06:10:29.024Z,1.2
2018-03-08T06:11:36.222Z,1.2
2018-03-08T06:12:43.140Z,1.2
2018-03-08T06:13:50.069Z,1.2
2018-03-08T06:14:56.988Z,1.2
2018-03-08T06:16:03.910Z,1.1
2018-03-08T06:17:10.838Z,1.1
2018-03-08T06:18:17.497Z,1.1
2018-03-08T06:19:24.228Z,1.1
2018-03-08T06:20:30.914Z,1.1
2018-03-08T06:21:37.838Z,1.1
2018-03-08T06:22:44.753Z,1.1
2018-03-08T06:23:51.664Z,1.1
2018-03-08T06:24:58.867Z,1.1
2018-03-08T06:26:06.060Z,1
2018-03-08T06:27:13.261Z,1
2018-03-08T06:28:20.188Z,1.1
2018-03-08T06:29:27.382Z,1.1
2018-03-08T06:30:34.303Z,1.1
2018-03-08T06:31:41.505Z,1.1
2018-03-08T06:32:48.702Z,1.2
2018-03-08T06:33:55.904Z,1.2
2018-03-08T06:35:03.100Z,1.2
2018-03-08T06:36:10.300Z,1.2
2018-03-08T06:37:17.504Z,1.3
2018-03-08T06:38:24.703Z,1.3
2018-03-08T06:39:31.627Z,1.4
2018-03-08T06:40:38.826Z,1.4
2018-03-08T06:41:46.029Z,1.5
2018-03-08T06:42:53.227Z,1.5
2018-03-08T06:44:00.424Z,1.6
2018-03-08T06:45:07.337Z,1.6
2018-03-08T06:46:14.533Z,1.6
2018-03-08T06:47:21.737Z,1.6
2018-03-08T06:48:28.930Z,1.7
2018-03-08T06:49:36.134Z,1.6
2018-03-08T06:50:43.323Z,1.7
2018-03-08T06:51:50.524Z,1.8
2018-03-08T06:52:57.723Z,1.8
2018-03-08T06:54:04.933Z,1.9
2018-03-08T06:55:12.136Z,2
2018-03-08T06:56:19.330Z,2.1
2018-03-08T06:57:26.254Z,2.2
2018-03-08T06:58:33.459Z,2.3
2018-03-08T06:59:40.111Z,2.4
2018-03-08T07:00:47.033Z,2.5
2018-03-08T07:01:53.960Z,2.6
2018-03-08T07:03:01.151Z,2.5
2018-03-08T07:04:07.804Z,2.4
2018-03-08T07:05:15.004Z,2.4
2018-03-08T07:06:21.659Z,2.3
2018-03-08T07:07:28.579Z,2.3
2018-03-08T07:08:36.585Z,2.2
2018-03-08T07:09:43.788Z,2.2
2018-03-08T07:10:50.767Z,2.1
2018-03-08T07:11:57.978Z,2.1
2018-03-08T07:13:05.177Z,2.2
2018-03-08T07:14:12.376Z,2.2
2018-03-08T07:15:19.580Z,2.2
2018-03-08T07:16:26.794Z,2.1
2018-03-08T07:17:33.705Z,2.2
2018-03-08T07:18:40.362Z,2.2
2018-03-08T07:19:47.283Z,2.2
2018-03-08T07:20:54.478Z,2.2
2018-03-08T07:22:01.683Z,2.2
2018-03-08T07:23:08.608Z,2.2
2018-03-08T07:24:15.804Z,2.2
2018-03-08T07:25:23.000Z,2.2
2018-03-08T07:26:30.197Z,2.3
2018-03-08T07:27:37.127Z,2.3
2018-03-08T07:28:44.324Z,2.3
2018-03-08T07:29:51.524Z,2.3
2018-03-08T07:30:58.723Z,2.3
2018-03-08T07:32:05.923Z,2.3
2018-03-08T07:33:12.568Z,2.4
2018-03-08T07:34:19.765Z,2.4
2018-03-08T07:35:27.169Z,2.4
2018-03-08T07:36:34.370Z,2.4
2018-03-08T07:37:41.573Z,2.5
2018-03-08T07:38:48.767Z,2.5
2018-03-08T07:39:55.969Z,2.6
2018-03-08T07:41:03.165Z,2.6
2018-03-08T07:42:10.362Z,2.6
2018-03-08T07:43:17.562Z,2.6
2018-03-08T07:44:24.763Z,2.6
2018-03-08T07:45:31.687Z,2.7
2018-03-08T07:46:38.605Z,2.7
2018-03-08T07:47:45.533Z,2.8
2018-03-08T07:48:52.732Z,2.8
2018-03-08T07:49:59.932Z,2.8
2018-03-08T07:51:06.851Z,2.8
2018-03-08T07:52:14.061Z,2.9
2018-03-08T07:53:20.980Z,2.9
2018-03-08T07:54:27.636Z,2.9
2018-03-08T07:55:34.549Z,2.9
2018-03-08T07:56:41.472Z,2.9
2018-03-08T07:57:48.117Z,2.9
2018-03-08T07:58:55.320Z,2.9
2018-03-08T08:00:02.520Z,2.9
2018-03-08T08:01:09.719Z,3
2018-03-08T08:02:16.981Z,3
2018-03-08T08:03:24.166Z,3.1
2018-03-08T08:04:31.369Z,3.1
2018-03-08T08:05:38.568Z,3.2
2018-03-08T08:06:45.487Z,3.3
2018-03-08T08:07:52.406Z,3.4
2018-03-08T08:08:59.057Z,3.4
2018-03-08T08:10:05.976Z,3.4
2018-03-08T08:11:13.171Z,3.4
2018-03-08T08:12:20.370Z,3.4
2018-03-08T08:13:27.569Z,3.4
2018-03-08T08:14:34.770Z,3.5
2018-03-08T08:15:41.695Z,3.5
2018-03-08T08:16:48.894Z,3.4
2018-03-08T08:17:56.090Z,3.5
2018-03-08T08:19:03.292Z,3.6
2018-03-08T08:20:10.493Z,3.6
2018-03-08T08:21:17.689Z,3.7
2018-03-08T08:22:24.881Z,3.7
2018-03-08T08:23:32.078Z,3.7
2018-03-08T08:24:39.481Z,3.7
2018-03-08T08:25:46.680Z,3.8
2018-03-08T08:26:53.873Z,3.8
2018-03-08T08:28:01.073Z,3.8
2018-03-08T08:29:07.997Z,3.8
2018-03-08T08:30:14.919Z,3.8
2018-03-08T08:31:21.830Z,3.8
2018-03-08T08:32:29.030Z,3.8
2018-03-08T08:33:35.950Z,3.8
2018-03-08T08:34:43.147Z,3.8
2018-03-08T08:35:50.072Z,3.8
2018-03-08T08:36:56.730Z,3.8
2018-03-08T08:38:03.655Z,3.8
2018-03-08T08:39:10.577Z,3.8
2018-03-08T08:40:17.504Z,3.9
2018-03-08T08:41:24.124Z,3.9
2018-03-08T08:42:31.046Z,3.9
2018-03-08T08:43:37.976Z,4
2018-03-08T08:44:44.902Z,4
2018-03-08T08:45:52.137Z,4
2018-03-08T08:46:59.334Z,4.1
2018-03-08T08:48:06.254Z,4.1
2018-03-08T08:49:13.456Z,4.1
2018-03-08T08:50:20.380Z,4.2
2018-03-08T08:51:27.309Z,4.2
2018-03-08T08:52:34.509Z,4.3
2018-03-08T08:53:41.436Z,4.3
2018-03-08T08:54:48.371Z,4.3
2018-03-08T08:55:55.575Z,4.4
2018-03-08T08:57:02.774Z,4.5
2018-03-08T08:58:09.974Z,4.6
2018-03-08T08:59:17.173Z,4.6
2018-03-08T09:00:24.088Z,4.6
2018-03-08T09:01:31.007Z,4.7
2018-03-08T09:02:38.210Z,4.7
2018-03-08T09:03:45.409Z,4.8
2018-03-08T09:04:52.609Z,4.9
2018-03-08T09:05:59.539Z,5
2018-03-08T09:07:06.190Z,5.1
2018-03-08T09:08:12.843Z,5.1
2018-03-08T09:09:19.769Z,5.2
2018-03-08T09:10:26.417Z,5.3
2018-03-08T09:11:33.627Z,5.3
2018-03-08T09:12:40.824Z,5.3
2018-03-08T09:13:47.496Z,5.2
2018-03-08T09:14:54.418Z,5.3
2018-03-08T09:16:01.618Z,5.3
2018-03-08T09:17:08.816Z,5.4
2018-03-08T09:18:16.268Z,5.4
2018-03-08T09:19:23.469Z,5.4
2018-03-08T09:20:30.678Z,5.5
2018-03-08T09:21:37.597Z,5.5
2018-03-08T09:22:44.802Z,5.5
2018-03-08T09:23:51.708Z,5.5
2018-03-08T09:24:58.637Z,5.5
2018-03-08T09:26:05.557Z,5.4
2018-03-08T09:27:12.482Z,5.5
2018-03-08T09:28:19.682Z,5.5
2018-03-08T09:29:26.610Z,5.5
2018-03-08T09:30:33.811Z,5.6
2018-03-08T09:31:40.738Z,5.6
2018-03-08T09:32:47.658Z,5.7
2018-03-08T09:33:54.883Z,5.8
2018-03-08T09:35:02.377Z,5.9
2018-03-08T09:36:09.293Z,6
2018-03-08T09:37:16.495Z,6
2018-03-08T09:38:23.427Z,5.9
2018-03-08T09:39:30.082Z,5.9
2018-03-08T09:40:37.003Z,5.9
2018-03-08T09:41:43.928Z,5.9
2018-03-08T09:42:51.125Z,6
2018-03-08T09:43:57.764Z,6.1
2018-03-08T09:45:04.137Z,6.2
2018-03-08T09:46:11.068Z,6.3
2018-03-08T09:47:18.269Z,6.2
2018-03-08T09:48:24.650Z,6.3
2018-03-08T09:49:31.573Z,6.3
2018-03-08T09:50:38.767Z,6.3
2018-03-08T09:51:46.043Z,6.4
2018-03-08T09:52:53.032Z,6.4
2018-03-08T09:54:00.231Z,6.4
2018-03-08T09:55:07.166Z,6.5
2018-03-08T09:56:14.365Z,6.9
2018-03-08T09:57:21.028Z,7.2
2018-03-08T09:58:27.949Z,7.5
2018-03-08T09:59:34.886Z,8.1
2018-03-08T10:00:42.072Z,8.4
2018-03-08T10:01:49.291Z,8.1
2018-03-08T10:02:56.218Z,7.9
2018-03-08T10:04:03.146Z,8.1
2018-03-08T10:05:10.078Z,7.9
2018-03-08T10:06:16.722Z,7.8
2018-03-08T10:07:23.926Z,7.6
2018-03-08T10:08:31.379Z,7.6
2018-03-08T10:09:38.296Z,7.7
2018-03-08T10:10:45.500Z,7.7
2018-03-08T10:11:52.705Z,7.8
2018-03-08T10:12:59.634Z,7.7
2018-03-08T10:14:06.810Z,7.9
2018-03-08T10:15:13.463Z,8.1
2018-03-08T10:16:20.666Z,7.9
2018-03-08T10:17:27.872Z,7.9
2018-03-08T10:18:34.526Z,7.7
2018-03-08T10:19:41.449Z,7.5
2018-03-08T10:20:48.380Z,7.5
2018-03-08T10:21:55.304Z,7.6
2018-03-08T10:23:02.226Z,7.6
2018-03-08T10:24:08.874Z,7.8
2018-03-08T10:25:16.330Z,7.9
2018-03-08T10:26:23.258Z,7.9
2018-03-08T10:27:30.468Z,8
2018-03-08T10:28:37.665Z,7.9
2018-03-08T10:29:44.872Z,7.9
2018-03-08T10:30:52.102Z,7.9
2018-03-08T10:31:59.291Z,8
2018-03-08T10:33:06.490Z,7.9
2018-03-08T10:34:13.696Z,7.8
2018-03-08T10:35:20.614Z,7.8
2018-03-08T10:36:27.276Z,7.9
2018-03-08T10:37:34.209Z,7.9
2018-03-08T10:38:41.412Z,7.7
2018-03-08T10:39:48.616Z,7.7
2018-03-08T10:40:55.824Z,7.6
2018-03-08T10:42:03.108Z,7.7
2018-03-08T10:43:10.314Z,7.7
2018-03-08T10:44:17.520Z,7.7
2018-03-08T10:45:24.721Z,7.5
2018-03-08T10:46:31.927Z,7.5
2018-03-08T10:47:39.124Z,7.5
2018-03-08T10:50:08.916Z,7.5
2018-03-08T10:51:15.603Z,7.5
2018-03-08T10:52:22.797Z,7.6
2018-03-08T10:53:29.724Z,7.5
2018-03-08T10:54:36.648Z,7.5
2018-03-08T10:55:43.852Z,7.5
2018-03-08T10:56:50.785Z,7.5
2018-03-08T10:57:57.706Z,7.4
2018-03-08T10:59:04.911Z,7.4
2018-03-08T11:00:12.131Z,7.4
2018-03-08T11:01:19.052Z,7.5
2018-03-08T11:02:25.700Z,7.6
2018-03-08T11:03:32.903Z,7.9
2018-03-08T11:04:40.111Z,8.3
2018-03-08T11:05:47.036Z,8.8
2018-03-08T11:06:54.237Z,8.8
2018-03-08T11:08:01.437Z,8.8
2018-03-08T11:09:08.367Z,8.7
2018-03-08T11:10:15.288Z,8.6
2018-03-08T11:11:22.209Z,8.6
2018-03-08T11:12:29.416Z,8.6
2018-03-08T11:13:36.343Z,8.5
2018-03-08T11:14:43.795Z,8.3
2018-03-08T11:15:50.441Z,8.3
2018-03-08T11:16:57.645Z,8.3
2018-03-08T11:18:04.294Z,8.3
2018-03-08T11:19:11.505Z,8.2
2018-03-08T11:20:18.436Z,8.1
2018-03-08T11:21:25.364Z,8.1
2018-03-08T11:22:32.567Z,8.1
2018-03-08T11:23:39.845Z,8.1
2018-03-08T11:24:46.767Z,8.1
2018-03-08T11:25:53.716Z,8.1
2018-03-08T11:27:00.919Z,8.2
2018-03-08T11:28:08.117Z,8.3
2018-03-08T11:29:15.323Z,8.3
2018-03-08T11:30:21.982Z,8.4
2018-03-08T11:31:29.192Z,8.3
2018-03-08T11:32:36.114Z,8.2
2018-03-08T11:33:42.766Z,8.2
2018-03-08T11:34:49.969Z,8.2
2018-03-08T11:35:57.172Z,8.2
2018-03-08T11:37:04.375Z,8.2
2018-03-08T11:38:11.573Z,8.2
2018-03-08T11:39:18.507Z,8.2
2018-03-08T11:40:25.706Z,8.2
2018-03-08T11:41:32.640Z,8.3
2018-03-08T11:42:39.570Z,8.4
2018-03-08T11:43:46.782Z,8.5
2018-03-08T11:44:53.988Z,8.5
2018-03-08T11:46:01.190Z,8.5
2018-03-08T11:47:08.397Z,8.5
2018-03-08T11:48:15.600Z,8.5
2018-03-08T11:49:22.799Z,8.6
2018-03-08T11:50:30.000Z,8.6
2018-03-08T11:51:37.196Z,8.7
2018-03-08T11:52:44.127Z,8.7
2018-03-08T11:53:51.331Z,8.8
2018-03-08T11:54:58.405Z,8.8
2018-03-08T11:56:05.837Z,9
2018-03-08T11:57:13.043Z,9
2018-03-08T11:58:20.246Z,9.2
2018-03-08T11:59:27.447Z,9.1
2018-03-08T12:00:34.651Z,9.2
2018-03-08T12:01:41.856Z,9
2018-03-08T12:02:49.070Z,8.9
2018-03-08T12:03:55.981Z,8.8
2018-03-08T12:05:03.192Z,8.8
2018-03-08T12:06:10.398Z,8.8
2018-03-08T12:07:17.622Z,8.8
2018-03-08T12:08:24.558Z,8.8
2018-03-08T12:09:31.761Z,8.9
2018-03-08T12:10:38.965Z,8.8
2018-03-08T12:11:45.899Z,8.8
2018-03-08T12:12:52.818Z,8.8
2018-03-08T12:14:00.022Z,8.7
2018-03-08T12:15:07.471Z,8.8
2018-03-08T12:16:14.670Z,8.9
2018-03-08T12:17:21.872Z,9
2018-03-08T12:18:29.076Z,9.1
2018-03-08T12:19:36.277Z,9.3
2018-03-08T12:20:43.479Z,9.3
2018-03-08T12:21:50.680Z,9.3
2018-03-08T12:22:57.884Z,9.3
2018-03-08T12:24:05.088Z,9.3
2018-03-08T12:25:12.293Z,9.3
2018-03-08T12:26:19.500Z,9.1
2018-03-08T12:27:26.705Z,9
2018-03-08T12:28:33.356Z,9
2018-03-08T12:29:40.286Z,8.9
2018-03-08T12:30:47.493Z,8.9
2018-03-08T12:31:54.694Z,8.8
2018-03-08T12:33:01.344Z,8.8
2018-03-08T12:34:07.994Z,8.9
2018-03-08T12:35:14.368Z,8.9
2018-03-08T12:36:21.580Z,9
2018-03-08T12:37:28.784Z,9
2018-03-08T12:38:35.994Z,8.9
2018-03-08T12:39:43.194Z,8.9
2018-03-08T12:40:49.846Z,8.9
2018-03-08T12:41:56.776Z,8.8
2018-03-08T12:43:03.984Z,8.8
2018-03-08T12:44:11.188Z,8.7
2018-03-08T12:45:17.849Z,8.7
2018-03-08T12:46:24.838Z,8.8
2018-03-08T12:47:31.496Z,8.7
2018-03-08T12:48:38.749Z,8.7
2018-03-08T12:49:46.274Z,8.7
2018-03-08T12:50:53.480Z,8.7
2018-03-08T12:52:00.385Z,8.6
2018-03-08T12:53:07.314Z,8.6
2018-03-08T12:54:13.964Z,8.6
2018-03-08T12:55:20.891Z,8.6
2018-03-08T12:56:28.091Z,8.6
2018-03-08T12:57:35.305Z,8.6
2018-03-08T12:58:42.510Z,8.7
2018-03-08T12:59:49.714Z,8.6
2018-03-08T13:00:56.650Z,8.7
2018-03-08T13:02:03.882Z,8.6
2018-03-08T13:03:11.356Z,8.6
2018-03-08T13:04:18.335Z,8.6
2018-03-08T13:05:25.255Z,8.7
2018-03-08T13:06:32.455Z,8.7
2018-03-08T13:07:39.687Z,8.7
2018-03-08T13:08:46.750Z,8.7
2018-03-08T13:09:53.953Z,8.8
2018-03-08T13:11:00.882Z,8.8
2018-03-08T13:12:07.807Z,8.8
2018-03-08T13:13:14.733Z,8.8
2018-03-08T13:14:22.188Z,8.8
2018-03-08T13:15:29.394Z,8.7
2018-03-08T13:16:36.600Z,8.8
2018-03-08T13:17:43.248Z,8.8
2018-03-08T13:18:50.175Z,8.8
2018-03-08T13:19:57.096Z,8.8
2018-03-08T13:21:04.295Z,8.8
2018-03-08T13:22:10.685Z,8.7
2018-03-08T13:23:17.887Z,8.7
2018-03-08T13:24:24.811Z,8.7
2018-03-08T13:25:31.470Z,8.7
2018-03-08T13:26:38.692Z,8.8
2018-03-08T13:27:45.610Z,8.8
2018-03-08T13:28:52.810Z,8.8
2018-03-08T13:30:00.010Z,8.9
2018-03-08T13:31:07.214Z,8.9
2018-03-08T13:32:14.145Z,8.8
2018-03-08T13:33:20.795Z,8.9
2018-03-08T13:34:27.726Z,8.9
2018-03-08T13:35:34.933Z,8.9
2018-03-08T13:36:42.135Z,9
2018-03-08T13:37:49.075Z,9
2018-03-08T13:38:56.004Z,9
2018-03-08T13:40:02.934Z,8.9
2018-03-08T13:41:10.134Z,8.9
2018-03-08T13:42:17.341Z,8.9
2018-03-08T13:43:23.991Z,9
2018-03-08T13:44:31.196Z,9
2018-03-08T13:45:37.849Z,9
2018-03-08T13:46:45.329Z,9
2018-03-08T13:47:52.253Z,9.1
2018-03-08T13:48:59.192Z,9
2018-03-08T13:50:06.395Z,9
2018-03-08T13:51:13.063Z,8.9
2018-03-08T13:52:20.287Z,9
2018-03-08T13:53:27.566Z,9.1
2018-03-08T13:54:34.495Z,9.1
2018-03-08T13:55:41.697Z,9.1
2018-03-08T13:56:48.632Z,9.1
2018-03-08T13:57:55.556Z,9.1
2018-03-08T13:59:02.755Z,9.1
2018-03-08T14:00:09.151Z,9.1
2018-03-08T14:01:16.076Z,9.1
2018-03-08T14:02:23.534Z,9.2
2018-03-08T14:03:30.459Z,9.2
2018-03-08T14:04:37.676Z,9.3
2018-03-08T14:05:44.885Z,9.5
2018-03-08T14:06:52.093Z,9.6
2018-03-08T14:07:59.274Z,9.7
2018-03-08T14:09:06.200Z,9.7
2018-03-08T14:10:13.402Z,9.8
2018-03-08T14:11:20.606Z,9.8
2018-03-08T14:12:27.534Z,10
2018-03-08T14:13:34.738Z,10.3
2018-03-08T14:14:41.383Z,10.5
2018-03-08T14:15:48.590Z,10.6
2018-03-08T14:16:55.251Z,10.6
2018-03-08T14:18:02.451Z,10.4
2018-03-08T14:19:09.379Z,10.2
2018-03-08T14:20:16.686Z,10.3
2018-03-08T14:21:23.970Z,10.7
2018-03-08T14:22:30.737Z,10.8
2018-03-08T14:23:37.941Z,11
2018-03-08T14:24:44.602Z,11.1
2018-03-08T14:25:51.529Z,11.1
2018-03-08T14:26:58.464Z,11.1
2018-03-08T14:28:05.427Z,11.2
2018-03-08T14:29:12.636Z,11.3
2018-03-08T14:30:19.839Z,11.1
2018-03-08T14:31:27.051Z,11
2018-03-08T14:32:33.993Z,10.8
2018-03-08T14:33:41.203Z,10.8
2018-03-08T14:34:48.409Z,10.8
2018-03-08T14:35:55.339Z,10.6
2018-03-08T14:37:02.268Z,10.6
2018-03-08T14:38:09.201Z,10.4
2018-03-08T14:39:16.407Z,10.2
2018-03-08T14:40:23.058Z,10.1
2018-03-08T14:41:29.992Z,10
2018-03-08T14:42:37.200Z,10
2018-03-08T14:43:44.435Z,10.1
2018-03-08T14:44:51.359Z,10.1
2018-03-08T14:45:58.296Z,10.1
2018-03-08T14:47:05.225Z,10.3
2018-03-08T14:48:12.433Z,10.4
2018-03-08T14:49:19.632Z,10.5
2018-03-08T14:50:26.837Z,10.4
2018-03-08T14:51:33.773Z,10.3
2018-03-08T14:52:40.982Z,10.4
2018-03-08T14:53:48.195Z,10.3
2018-03-08T14:54:55.131Z,10.1
2018-03-08T14:56:02.066Z,10.3
2018-03-08T14:57:08.998Z,10.2
2018-03-08T14:58:15.656Z,10.1
2018-03-08T14:59:22.303Z,10
2018-03-08T15:00:29.508Z,10
2018-03-08T15:01:36.446Z,9.9
2018-03-08T15:02:43.664Z,10
2018-03-08T15:03:50.323Z,10
2018-03-08T15:04:57.248Z,9.9
